sensor_id;sensor_type;location;lat;lon;timestamp;temperature;humidity
2723;DHT22;1369;53.216;10.396;2023-01-23T00:01:39;3.80;99.90
2723;DHT22;1369;53.216;10.396;2023-01-23T00:04:05;3.80;99.90
2723;DHT22;1369;53.216;10.396;2023-01-23T00:06:31;3.80;99.90
2723;DHT22;1369;53.216;10.396;2023-01-23T00:08:56;3.80;99.90
2723;DHT22;1369;53.216;10.396;2023-01-23T00:11:27;3.80;99.90
2723;DHT22;1369;53.216;10.396;2023-01-23T00:13:55;3.70;99.90
2723;DHT22;1369;53.216;10.396;2023-01-23T00:16:24;3.70;99.90
2723;DHT22;1369;53.216;10.396;2023-01-23T00:18:50;3.80;99.90
2723;DHT22;1369;53.216;10.396;2023-01-23T00:21:18;3.70;99.90
2723;DHT22;1369;53.216;10.396;2023-01-23T00:23:47;3.70;99.90
2723;DHT22;1369;53.216;10.396;2023-01-23T00:26:16;3.70;99.90
2723;DHT22;1369;53.216;10.396;2023-01-23T00:28:42;3.70;99.90
2723;DHT22;1369;53.216;10.396;2023-01-23T00:31:13;3.70;99.90
2723;DHT22;1369;53.216;10.396;2023-01-23T00:33:39;3.70;99.90
2723;DHT22;1369;53.216;10.396;2023-01-23T00:36:05;3.70;99.90
2723;DHT22;1369;53.216;10.396;2023-01-23T00:38:32;3.70;99.90
2723;DHT22;1369;53.216;10.396;2023-01-23T00:40:57;3.70;99.90
2723;DHT22;1369;53.216;10.396;2023-01-23T00:43:23;3.70;99.90
2723;DHT22;1369;53.216;10.396;2023-01-23T00:45:49;3.70;99.90
2723;DHT22;1369;53.216;10.396;2023-01-23T00:48:15;3.70;99.90
2723;DHT22;1369;53.216;10.396;2023-01-23T00:50:41;3.60;99.90
2723;DHT22;1369;53.216;10.396;2023-01-23T00:53:06;3.60;99.90
2723;DHT22;1369;53.216;10.396;2023-01-23T00:55:32;3.60;99.90
2723;DHT22;1369;53.216;10.396;2023-01-23T00:57:57;3.70;99.90
2723;DHT22;1369;53.216;10.396;2023-01-23T01:00:24;3.70;99.90
2723;DHT22;1369;53.216;10.396;2023-01-23T01:02:50;3.70;99.90
2723;DHT22;1369;53.216;10.396;2023-01-23T01:05:15;3.80;99.90
2723;DHT22;1369;53.216;10.396;2023-01-23T01:07:43;3.80;99.90
2723;DHT22;1369;53.216;10.396;2023-01-23T01:10:09;3.80;99.90
2723;DHT22;1369;53.216;10.396;2023-01-23T01:12:35;3.80;99.90
2723;DHT22;1369;53.216;10.396;2023-01-23T01:15:01;3.80;99.90
2723;DHT22;1369;53.216;10.396;2023-01-23T01:17:27;3.80;99.90
2723;DHT22;1369;53.216;10.396;2023-01-23T01:19:52;3.80;99.90
2723;DHT22;1369;53.216;10.396;2023-01-23T01:22:18;3.80;99.90
2723;DHT22;1369;53.216;10.396;2023-01-23T01:24:44;3.80;99.90
2723;DHT22;1369;53.216;10.396;2023-01-23T01:27:09;3.70;99.90
2723;DHT22;1369;53.216;10.396;2023-01-23T01:29:35;3.70;99.90
2723;DHT22;1369;53.216;10.396;2023-01-23T01:32:00;3.70;99.90
2723;DHT22;1369;53.216;10.396;2023-01-23T01:34:26;3.80;99.90
2723;DHT22;1369;53.216;10.396;2023-01-23T01:36:51;3.80;99.90
2723;DHT22;1369;53.216;10.396;2023-01-23T01:39:17;3.70;99.90
2723;DHT22;1369;53.216;10.396;2023-01-23T01:41:43;3.70;99.90
2723;DHT22;1369;53.216;10.396;2023-01-23T01:44:18;3.70;99.90
2723;DHT22;1369;53.216;10.396;2023-01-23T01:46:43;3.70;99.90
2723;DHT22;1369;53.216;10.396;2023-01-23T01:49:22;3.70;99.90
2723;DHT22;1369;53.216;10.396;2023-01-23T01:51:56;3.70;99.90
2723;DHT22;1369;53.216;10.396;2023-01-23T01:54:29;3.70;99.90
2723;DHT22;1369;53.216;10.396;2023-01-23T01:57:06;3.70;99.90
2723;DHT22;1369;53.216;10.396;2023-01-23T02:02:23;3.60;99.90
2723;DHT22;1369;53.216;10.396;2023-01-23T02:04:53;3.70;99.90
2723;DHT22;1369;53.216;10.396;2023-01-23T02:07:33;3.60;99.90
2723;DHT22;1369;53.216;10.396;2023-01-23T02:10:02;3.70;99.90
2723;DHT22;1369;53.216;10.396;2023-01-23T02:12:28;3.70;99.90
2723;DHT22;1369;53.216;10.396;2023-01-23T02:14:54;3.70;99.90
2723;DHT22;1369;53.216;10.396;2023-01-23T02:17:19;3.70;99.90
2723;DHT22;1369;53.216;10.396;2023-01-23T02:19:57;3.70;99.90
2723;DHT22;1369;53.216;10.396;2023-01-23T02:25:08;3.60;99.90
2723;DHT22;1369;53.216;10.396;2023-01-23T02:27:38;3.60;99.90
2723;DHT22;1369;53.216;10.396;2023-01-23T02:30:04;3.60;99.90
2723;DHT22;1369;53.216;10.396;2023-01-23T02:32:32;3.60;99.90
2723;DHT22;1369;53.216;10.396;2023-01-23T02:34:59;3.60;99.90
2723;DHT22;1369;53.216;10.396;2023-01-23T02:37:28;3.60;99.90
2723;DHT22;1369;53.216;10.396;2023-01-23T02:39:58;3.50;99.90
2723;DHT22;1369;53.216;10.396;2023-01-23T02:42:24;3.60;99.90
2723;DHT22;1369;53.216;10.396;2023-01-23T02:44:50;3.60;99.90
2723;DHT22;1369;53.216;10.396;2023-01-23T02:47:18;3.60;99.90
2723;DHT22;1369;53.216;10.396;2023-01-23T02:49:43;3.50;99.90
2723;DHT22;1369;53.216;10.396;2023-01-23T02:52:09;3.50;99.90
2723;DHT22;1369;53.216;10.396;2023-01-23T02:54:35;3.50;99.90
2723;DHT22;1369;53.216;10.396;2023-01-23T02:57:01;3.50;99.90
2723;DHT22;1369;53.216;10.396;2023-01-23T02:59:26;3.50;99.90
2723;DHT22;1369;53.216;10.396;2023-01-23T03:02:11;3.50;99.90
2723;DHT22;1369;53.216;10.396;2023-01-23T03:04:37;3.50;99.90
2723;DHT22;1369;53.216;10.396;2023-01-23T03:07:02;3.50;99.90
2723;DHT22;1369;53.216;10.396;2023-01-23T03:09:28;3.50;99.90
2723;DHT22;1369;53.216;10.396;2023-01-23T03:11:54;3.50;99.90
2723;DHT22;1369;53.216;10.396;2023-01-23T03:14:21;3.50;99.90
2723;DHT22;1369;53.216;10.396;2023-01-23T03:16:47;3.50;99.90
2723;DHT22;1369;53.216;10.396;2023-01-23T03:19:19;3.50;99.90
2723;DHT22;1369;53.216;10.396;2023-01-23T03:21:44;3.50;99.90
2723;DHT22;1369;53.216;10.396;2023-01-23T03:24:12;3.60;99.90
2723;DHT22;1369;53.216;10.396;2023-01-23T03:26:42;3.60;99.90
2723;DHT22;1369;53.216;10.396;2023-01-23T03:29:20;3.60;99.90
2723;DHT22;1369;53.216;10.396;2023-01-23T03:32:05;3.60;99.90
2723;DHT22;1369;53.216;10.396;2023-01-23T03:34:31;3.60;99.90
2723;DHT22;1369;53.216;10.396;2023-01-23T03:36:57;3.60;99.90
2723;DHT22;1369;53.216;10.396;2023-01-23T03:39:23;3.60;99.90
2723;DHT22;1369;53.216;10.396;2023-01-23T03:42:07;3.60;99.90
2723;DHT22;1369;53.216;10.396;2023-01-23T03:44:33;3.60;99.90
2723;DHT22;1369;53.216;10.396;2023-01-23T03:46:58;3.60;99.90
2723;DHT22;1369;53.216;10.396;2023-01-23T03:49:24;3.60;99.90
2723;DHT22;1369;53.216;10.396;2023-01-23T03:51:49;3.70;99.90
2723;DHT22;1369;53.216;10.396;2023-01-23T03:54:15;3.60;99.90
2723;DHT22;1369;53.216;10.396;2023-01-23T03:56:41;3.60;99.90
2723;DHT22;1369;53.216;10.396;2023-01-23T03:59:07;3.50;99.90
2723;DHT22;1369;53.216;10.396;2023-01-23T04:01:33;3.60;99.90
2723;DHT22;1369;53.216;10.396;2023-01-23T04:03:59;3.60;99.90
2723;DHT22;1369;53.216;10.396;2023-01-23T04:06:24;3.60;99.90
2723;DHT22;1369;53.216;10.396;2023-01-23T04:08:50;3.60;99.90
2723;DHT22;1369;53.216;10.396;2023-01-23T04:11:15;3.60;99.90
2723;DHT22;1369;53.216;10.396;2023-01-23T04:13:41;3.60;99.90
2723;DHT22;1369;53.216;10.396;2023-01-23T04:16:06;3.60;99.90
2723;DHT22;1369;53.216;10.396;2023-01-23T04:18:33;3.50;99.90
2723;DHT22;1369;53.216;10.396;2023-01-23T04:20:59;3.60;99.90
2723;DHT22;1369;53.216;10.396;2023-01-23T04:23:24;3.60;99.90
2723;DHT22;1369;53.216;10.396;2023-01-23T04:25:51;3.60;99.90
2723;DHT22;1369;53.216;10.396;2023-01-23T04:28:17;3.60;99.90
2723;DHT22;1369;53.216;10.396;2023-01-23T04:30:43;3.60;99.90
2723;DHT22;1369;53.216;10.396;2023-01-23T04:33:09;3.60;99.90
2723;DHT22;1369;53.216;10.396;2023-01-23T04:35:34;3.60;99.90
2723;DHT22;1369;53.216;10.396;2023-01-23T04:38:00;3.60;99.90
2723;DHT22;1369;53.216;10.396;2023-01-23T04:40:26;3.60;99.90
2723;DHT22;1369;53.216;10.396;2023-01-23T04:42:52;3.60;99.90
2723;DHT22;1369;53.216;10.396;2023-01-23T04:45:17;3.70;99.90
2723;DHT22;1369;53.216;10.396;2023-01-23T04:47:43;3.60;99.90
2723;DHT22;1369;53.216;10.396;2023-01-23T04:50:09;3.60;99.90
2723;DHT22;1369;53.216;10.396;2023-01-23T04:52:36;3.50;99.90
2723;DHT22;1369;53.216;10.396;2023-01-23T04:55:01;3.50;99.90
2723;DHT22;1369;53.216;10.396;2023-01-23T04:57:27;3.50;99.90
2723;DHT22;1369;53.216;10.396;2023-01-23T04:59:52;3.50;99.90
2723;DHT22;1369;53.216;10.396;2023-01-23T05:02:18;3.70;99.90
2723;DHT22;1369;53.216;10.396;2023-01-23T05:04:44;3.70;99.90
2723;DHT22;1369;53.216;10.396;2023-01-23T05:07:10;3.70;99.90
2723;DHT22;1369;53.216;10.396;2023-01-23T05:09:37;3.70;99.90
2723;DHT22;1369;53.216;10.396;2023-01-23T05:12:03;3.70;99.90
2723;DHT22;1369;53.216;10.396;2023-01-23T05:14:29;3.60;99.90
2723;DHT22;1369;53.216;10.396;2023-01-23T05:16:54;3.60;99.90
2723;DHT22;1369;53.216;10.396;2023-01-23T05:19:20;3.60;99.90
2723;DHT22;1369;53.216;10.396;2023-01-23T05:21:45;3.60;99.90
2723;DHT22;1369;53.216;10.396;2023-01-23T05:24:11;3.50;99.90
2723;DHT22;1369;53.216;10.396;2023-01-23T05:26:36;3.50;99.90
2723;DHT22;1369;53.216;10.396;2023-01-23T05:29:02;3.50;99.90
2723;DHT22;1369;53.216;10.396;2023-01-23T05:31:27;3.50;99.90
2723;DHT22;1369;53.216;10.396;2023-01-23T05:33:53;3.60;99.90
2723;DHT22;1369;53.216;10.396;2023-01-23T05:36:19;3.60;99.90
2723;DHT22;1369;53.216;10.396;2023-01-23T05:38:44;3.60;99.90
2723;DHT22;1369;53.216;10.396;2023-01-23T05:41:10;3.60;99.90
2723;DHT22;1369;53.216;10.396;2023-01-23T05:43:35;3.60;99.90
2723;DHT22;1369;53.216;10.396;2023-01-23T05:46:01;3.70;99.90
2723;DHT22;1369;53.216;10.396;2023-01-23T05:48:27;3.70;99.90
2723;DHT22;1369;53.216;10.396;2023-01-23T05:50:53;3.70;99.90
2723;DHT22;1369;53.216;10.396;2023-01-23T05:53:18;3.70;99.90
2723;DHT22;1369;53.216;10.396;2023-01-23T05:55:44;3.70;99.90
2723;DHT22;1369;53.216;10.396;2023-01-23T05:58:09;3.60;99.90
2723;DHT22;1369;53.216;10.396;2023-01-23T06:00:35;3.50;99.90
2723;DHT22;1369;53.216;10.396;2023-01-23T06:03:01;3.60;99.90
2723;DHT22;1369;53.216;10.396;2023-01-23T06:05:26;3.60;99.90
2723;DHT22;1369;53.216;10.396;2023-01-23T06:07:52;3.60;99.90
2723;DHT22;1369;53.216;10.396;2023-01-23T06:10:17;3.60;99.90
2723;DHT22;1369;53.216;10.396;2023-01-23T06:12:43;3.60;99.90
2723;DHT22;1369;53.216;10.396;2023-01-23T06:15:09;3.60;99.90
2723;DHT22;1369;53.216;10.396;2023-01-23T06:17:34;3.60;99.90
2723;DHT22;1369;53.216;10.396;2023-01-23T06:20:00;3.50;99.90
2723;DHT22;1369;53.216;10.396;2023-01-23T06:22:25;3.40;99.90
2723;DHT22;1369;53.216;10.396;2023-01-23T06:24:51;3.50;99.90
2723;DHT22;1369;53.216;10.396;2023-01-23T06:27:17;3.50;99.90
2723;DHT22;1369;53.216;10.396;2023-01-23T06:29:42;3.50;99.90
2723;DHT22;1369;53.216;10.396;2023-01-23T06:32:08;3.50;99.90
2723;DHT22;1369;53.216;10.396;2023-01-23T06:34:34;3.50;99.90
2723;DHT22;1369;53.216;10.396;2023-01-23T06:37:01;3.40;99.90
2723;DHT22;1369;53.216;10.396;2023-01-23T06:39:26;3.40;99.90
2723;DHT22;1369;53.216;10.396;2023-01-23T06:41:52;3.40;99.90
2723;DHT22;1369;53.216;10.396;2023-01-23T06:44:17;3.30;99.90
2723;DHT22;1369;53.216;10.396;2023-01-23T06:46:43;3.40;99.90
2723;DHT22;1369;53.216;10.396;2023-01-23T06:49:09;3.40;99.90
2723;DHT22;1369;53.216;10.396;2023-01-23T06:51:34;3.50;99.90
2723;DHT22;1369;53.216;10.396;2023-01-23T06:54:00;3.40;99.90
2723;DHT22;1369;53.216;10.396;2023-01-23T06:56:25;3.40;99.90
2723;DHT22;1369;53.216;10.396;2023-01-23T06:58:51;3.40;99.90
2723;DHT22;1369;53.216;10.396;2023-01-23T07:01:17;3.40;99.90
2723;DHT22;1369;53.216;10.396;2023-01-23T07:03:44;3.40;99.90
2723;DHT22;1369;53.216;10.396;2023-01-23T07:06:10;3.50;99.90
2723;DHT22;1369;53.216;10.396;2023-01-23T07:08:37;3.40;99.90
2723;DHT22;1369;53.216;10.396;2023-01-23T07:11:02;3.40;99.90
2723;DHT22;1369;53.216;10.396;2023-01-23T07:13:28;3.40;99.90
2723;DHT22;1369;53.216;10.396;2023-01-23T07:15:53;3.40;99.90
2723;DHT22;1369;53.216;10.396;2023-01-23T07:18:20;3.40;99.90
2723;DHT22;1369;53.216;10.396;2023-01-23T07:20:46;3.50;99.90
2723;DHT22;1369;53.216;10.396;2023-01-23T07:23:12;3.40;99.90
2723;DHT22;1369;53.216;10.396;2023-01-23T07:25:37;3.50;99.90
2723;DHT22;1369;53.216;10.396;2023-01-23T07:28:04;3.50;99.90
2723;DHT22;1369;53.216;10.396;2023-01-23T07:30:30;3.40;99.90
2723;DHT22;1369;53.216;10.396;2023-01-23T07:32:55;3.40;99.90
2723;DHT22;1369;53.216;10.396;2023-01-23T07:35:22;3.40;99.90
2723;DHT22;1369;53.216;10.396;2023-01-23T07:37:48;3.40;99.90
2723;DHT22;1369;53.216;10.396;2023-01-23T07:40:13;3.40;99.90
2723;DHT22;1369;53.216;10.396;2023-01-23T07:42:39;3.40;99.90
2723;DHT22;1369;53.216;10.396;2023-01-23T07:45:06;3.30;99.90
2723;DHT22;1369;53.216;10.396;2023-01-23T07:47:32;3.30;99.90
2723;DHT22;1369;53.216;10.396;2023-01-23T07:49:59;3.30;99.90
2723;DHT22;1369;53.216;10.396;2023-01-23T07:52:24;3.30;99.90
2723;DHT22;1369;53.216;10.396;2023-01-23T07:54:50;3.30;99.90
2723;DHT22;1369;53.216;10.396;2023-01-23T07:57:15;3.40;99.90
2723;DHT22;1369;53.216;10.396;2023-01-23T07:59:41;3.50;99.90
2723;DHT22;1369;53.216;10.396;2023-01-23T08:02:10;3.60;99.90
2723;DHT22;1369;53.216;10.396;2023-01-23T08:04:36;3.60;99.90
2723;DHT22;1369;53.216;10.396;2023-01-23T08:07:02;3.60;99.90
2723;DHT22;1369;53.216;10.396;2023-01-23T08:09:27;3.60;99.90
2723;DHT22;1369;53.216;10.396;2023-01-23T08:11:53;3.60;99.90
2723;DHT22;1369;53.216;10.396;2023-01-23T08:14:19;3.70;99.90
2723;DHT22;1369;53.216;10.396;2023-01-23T08:16:48;3.70;99.90
2723;DHT22;1369;53.216;10.396;2023-01-23T08:19:14;3.70;99.90
2723;DHT22;1369;53.216;10.396;2023-01-23T08:21:39;3.50;99.90
2723;DHT22;1369;53.216;10.396;2023-01-23T08:24:05;3.40;99.90
2723;DHT22;1369;53.216;10.396;2023-01-23T08:26:31;3.40;99.90
2723;DHT22;1369;53.216;10.396;2023-01-23T08:28:57;3.50;99.90
2723;DHT22;1369;53.216;10.396;2023-01-23T08:31:23;3.50;99.90
2723;DHT22;1369;53.216;10.396;2023-01-23T08:33:48;3.60;99.90
2723;DHT22;1369;53.216;10.396;2023-01-23T08:36:14;3.60;99.90
2723;DHT22;1369;53.216;10.396;2023-01-23T08:38:39;3.50;99.90
2723;DHT22;1369;53.216;10.396;2023-01-23T08:41:05;3.60;99.90
2723;DHT22;1369;53.216;10.396;2023-01-23T08:43:31;3.60;99.90
2723;DHT22;1369;53.216;10.396;2023-01-23T08:45:58;3.70;99.90
2723;DHT22;1369;53.216;10.396;2023-01-23T08:48:25;3.70;99.90
2723;DHT22;1369;53.216;10.396;2023-01-23T08:50:57;3.80;99.90
2723;DHT22;1369;53.216;10.396;2023-01-23T08:53:23;3.70;99.90
2723;DHT22;1369;53.216;10.396;2023-01-23T08:55:48;3.70;99.90
2723;DHT22;1369;53.216;10.396;2023-01-23T08:58:14;3.80;99.90
2723;DHT22;1369;53.216;10.396;2023-01-23T09:00:39;3.80;99.90
2723;DHT22;1369;53.216;10.396;2023-01-23T09:03:05;3.90;99.90
2723;DHT22;1369;53.216;10.396;2023-01-23T09:05:31;4.00;99.90
2723;DHT22;1369;53.216;10.396;2023-01-23T09:07:58;3.90;99.90
2723;DHT22;1369;53.216;10.396;2023-01-23T09:10:24;3.80;99.90
2723;DHT22;1369;53.216;10.396;2023-01-23T09:12:50;3.90;99.90
2723;DHT22;1369;53.216;10.396;2023-01-23T09:15:16;4.00;99.90
2723;DHT22;1369;53.216;10.396;2023-01-23T09:17:42;4.00;99.90
2723;DHT22;1369;53.216;10.396;2023-01-23T09:20:08;4.10;99.90
2723;DHT22;1369;53.216;10.396;2023-01-23T09:22:33;4.10;99.90
2723;DHT22;1369;53.216;10.396;2023-01-23T09:24:59;4.10;99.90
2723;DHT22;1369;53.216;10.396;2023-01-23T09:27:24;4.00;99.90
2723;DHT22;1369;53.216;10.396;2023-01-23T09:29:50;4.00;99.90
2723;DHT22;1369;53.216;10.396;2023-01-23T09:32:16;4.10;99.90
2723;DHT22;1369;53.216;10.396;2023-01-23T09:34:41;4.10;99.90
2723;DHT22;1369;53.216;10.396;2023-01-23T09:37:07;4.10;99.90
2723;DHT22;1369;53.216;10.396;2023-01-23T09:39:33;4.10;99.90
2723;DHT22;1369;53.216;10.396;2023-01-23T09:42:02;4.10;99.90
2723;DHT22;1369;53.216;10.396;2023-01-23T09:44:43;4.00;99.90
2723;DHT22;1369;53.216;10.396;2023-01-23T09:47:17;4.00;99.90
2723;DHT22;1369;53.216;10.396;2023-01-23T09:52:22;4.20;99.90
2723;DHT22;1369;53.216;10.396;2023-01-23T09:54:53;4.20;99.90
2723;DHT22;1369;53.216;10.396;2023-01-23T09:57:24;4.20;99.90
2723;DHT22;1369;53.216;10.396;2023-01-23T10:00:32;4.10;99.90
2723;DHT22;1369;53.216;10.396;2023-01-23T10:02:57;4.00;99.90
2723;DHT22;1369;53.216;10.396;2023-01-23T10:08:09;3.80;99.90
2723;DHT22;1369;53.216;10.396;2023-01-23T10:10:54;3.80;99.90
2723;DHT22;1369;53.216;10.396;2023-01-23T10:16:41;4.10;99.90
2723;DHT22;1369;53.216;10.396;2023-01-23T10:21:54;4.30;99.90
2723;DHT22;1369;53.216;10.396;2023-01-23T10:24:51;4.40;99.90
2723;DHT22;1369;53.216;10.396;2023-01-23T10:27:23;4.30;99.90
2723;DHT22;1369;53.216;10.396;2023-01-23T10:33:08;4.10;99.90
2723;DHT22;1369;53.216;10.396;2023-01-23T10:38:32;4.10;99.90
2723;DHT22;1369;53.216;10.396;2023-01-23T10:40:59;4.20;99.90
2723;DHT22;1369;53.216;10.396;2023-01-23T10:43:46;4.30;99.90
2723;DHT22;1369;53.216;10.396;2023-01-23T10:46:32;4.40;99.90
2723;DHT22;1369;53.216;10.396;2023-01-23T10:49:00;4.40;99.90
2723;DHT22;1369;53.216;10.396;2023-01-23T10:51:46;4.50;99.90
2723;DHT22;1369;53.216;10.396;2023-01-23T10:57:17;4.40;99.90
2723;DHT22;1369;53.216;10.396;2023-01-23T11:00:02;4.50;99.90
2723;DHT22;1369;53.216;10.396;2023-01-23T11:02:37;4.60;99.90
2723;DHT22;1369;53.216;10.396;2023-01-23T11:05:37;4.60;99.90
2723;DHT22;1369;53.216;10.396;2023-01-23T11:08:07;4.50;99.90
2723;DHT22;1369;53.216;10.396;2023-01-23T11:10:45;4.50;99.90
2723;DHT22;1369;53.216;10.396;2023-01-23T11:13:24;4.60;99.90
2723;DHT22;1369;53.216;10.396;2023-01-23T11:15:50;4.70;99.90
2723;DHT22;1369;53.216;10.396;2023-01-23T11:18:39;4.80;99.90
2723;DHT22;1369;53.216;10.396;2023-01-23T11:21:27;4.70;99.90
2723;DHT22;1369;53.216;10.396;2023-01-23T11:26:37;4.70;99.90
2723;DHT22;1369;53.216;10.396;2023-01-23T11:29:22;4.70;99.90
2723;DHT22;1369;53.216;10.396;2023-01-23T11:32:12;4.50;99.90
2723;DHT22;1369;53.216;10.396;2023-01-23T11:34:40;4.50;99.90
2723;DHT22;1369;53.216;10.396;2023-01-23T11:37:27;4.60;99.90
2723;DHT22;1369;53.216;10.396;2023-01-23T11:40:12;4.70;99.90
2723;DHT22;1369;53.216;10.396;2023-01-23T11:42:40;4.80;99.90
2723;DHT22;1369;53.216;10.396;2023-01-23T11:45:13;5.00;99.90
2723;DHT22;1369;53.216;10.396;2023-01-23T11:48:08;5.00;99.90
2723;DHT22;1369;53.216;10.396;2023-01-23T11:53:28;4.80;99.90
2723;DHT22;1369;53.216;10.396;2023-01-23T12:01:47;4.80;99.90
2723;DHT22;1369;53.216;10.396;2023-01-23T12:04:25;4.70;99.90
2723;DHT22;1369;53.216;10.396;2023-01-23T12:15:05;5.00;99.90
2723;DHT22;1369;53.216;10.396;2023-01-23T12:23:39;5.00;99.90
2723;DHT22;1369;53.216;10.396;2023-01-23T12:28:46;5.10;99.90
2723;DHT22;1369;53.216;10.396;2023-01-23T12:42:27;4.70;99.90
2723;DHT22;1369;53.216;10.396;2023-01-23T12:50:51;4.80;99.90
2723;DHT22;1369;53.216;10.396;2023-01-23T12:53:19;4.80;99.90
2723;DHT22;1369;53.216;10.396;2023-01-23T12:56:05;4.90;99.90
2723;DHT22;1369;53.216;10.396;2023-01-23T12:58:35;4.90;99.90
2723;DHT22;1369;53.216;10.396;2023-01-23T13:01:09;4.80;99.90
2723;DHT22;1369;53.216;10.396;2023-01-23T13:06:52;4.80;99.90
2723;DHT22;1369;53.216;10.396;2023-01-23T13:10:03;4.90;99.90
2723;DHT22;1369;53.216;10.396;2023-01-23T13:12:30;4.90;99.90
2723;DHT22;1369;53.216;10.396;2023-01-23T13:17:50;4.90;99.90
2723;DHT22;1369;53.216;10.396;2023-01-23T13:20:31;4.90;99.90
2723;DHT22;1369;53.216;10.396;2023-01-23T13:23:32;4.90;99.90
2723;DHT22;1369;53.216;10.396;2023-01-23T13:28:48;4.90;99.90
2723;DHT22;1369;53.216;10.396;2023-01-23T13:34:04;4.60;99.90
2723;DHT22;1369;53.216;10.396;2023-01-23T13:36:50;4.60;99.90
2723;DHT22;1369;53.216;10.396;2023-01-23T13:41:45;4.60;99.90
2723;DHT22;1369;53.216;10.396;2023-01-23T13:52:13;4.60;99.90
2723;DHT22;1369;53.216;10.396;2023-01-23T13:55:00;4.60;99.90
2723;DHT22;1369;53.216;10.396;2023-01-23T13:57:44;4.70;99.90
2723;DHT22;1369;53.216;10.396;2023-01-23T14:00:22;4.60;99.90
2723;DHT22;1369;53.216;10.396;2023-01-23T14:06:09;4.60;99.90
2723;DHT22;1369;53.216;10.396;2023-01-23T14:08:49;4.70;99.90
2723;DHT22;1369;53.216;10.396;2023-01-23T14:11:16;4.70;99.90
2723;DHT22;1369;53.216;10.396;2023-01-23T14:13:50;4.70;99.90
2723;DHT22;1369;53.216;10.396;2023-01-23T14:16:16;4.70;99.90
2723;DHT22;1369;53.216;10.396;2023-01-23T14:18:54;4.80;99.90
2723;DHT22;1369;53.216;10.396;2023-01-23T14:21:25;4.70;99.90
2723;DHT22;1369;53.216;10.396;2023-01-23T14:23:57;4.70;99.90
2723;DHT22;1369;53.216;10.396;2023-01-23T14:26:31;4.70;99.90
2723;DHT22;1369;53.216;10.396;2023-01-23T14:31:43;4.50;99.90
2723;DHT22;1369;53.216;10.396;2023-01-23T14:34:20;4.50;99.90
2723;DHT22;1369;53.216;10.396;2023-01-23T14:36:58;4.50;99.90
2723;DHT22;1369;53.216;10.396;2023-01-23T14:39:28;4.50;99.90
2723;DHT22;1369;53.216;10.396;2023-01-23T14:41:56;4.60;99.90
2723;DHT22;1369;53.216;10.396;2023-01-23T14:44:29;4.50;99.90
2723;DHT22;1369;53.216;10.396;2023-01-23T14:46:57;4.40;99.90
2723;DHT22;1369;53.216;10.396;2023-01-23T14:49:28;4.50;99.90
2723;DHT22;1369;53.216;10.396;2023-01-23T14:52:00;4.50;99.90
2723;DHT22;1369;53.216;10.396;2023-01-23T14:54:26;4.50;99.90
2723;DHT22;1369;53.216;10.396;2023-01-23T14:56:53;4.50;99.90
2723;DHT22;1369;53.216;10.396;2023-01-23T14:59:30;4.50;99.90
2723;DHT22;1369;53.216;10.396;2023-01-23T15:01:58;4.50;99.90
2723;DHT22;1369;53.216;10.396;2023-01-23T15:04:26;4.60;99.90
2723;DHT22;1369;53.216;10.396;2023-01-23T15:06:57;4.60;99.90
2723;DHT22;1369;53.216;10.396;2023-01-23T15:09:37;4.60;99.90
2723;DHT22;1369;53.216;10.396;2023-01-23T15:12:07;4.60;99.90
2723;DHT22;1369;53.216;10.396;2023-01-23T15:14:39;4.60;99.90
2723;DHT22;1369;53.216;10.396;2023-01-23T15:17:11;4.50;99.90
2723;DHT22;1369;53.216;10.396;2023-01-23T15:19:38;4.50;99.90
2723;DHT22;1369;53.216;10.396;2023-01-23T15:22:20;4.50;99.90
2723;DHT22;1369;53.216;10.396;2023-01-23T15:24:50;4.50;99.90
2723;DHT22;1369;53.216;10.396;2023-01-23T15:27:32;4.50;99.90
2723;DHT22;1369;53.216;10.396;2023-01-23T15:30:30;4.50;99.90
2723;DHT22;1369;53.216;10.396;2023-01-23T15:33:02;4.50;99.90
2723;DHT22;1369;53.216;10.396;2023-01-23T15:35:32;4.50;99.90
2723;DHT22;1369;53.216;10.396;2023-01-23T15:37:58;4.50;99.90
2723;DHT22;1369;53.216;10.396;2023-01-23T15:40:30;4.50;99.90
2723;DHT22;1369;53.216;10.396;2023-01-23T15:43:14;4.50;99.90
2723;DHT22;1369;53.216;10.396;2023-01-23T15:45:41;4.50;99.90
2723;DHT22;1369;53.216;10.396;2023-01-23T15:48:07;4.40;99.90
2723;DHT22;1369;53.216;10.396;2023-01-23T15:50:33;4.40;99.90
2723;DHT22;1369;53.216;10.396;2023-01-23T15:52:58;4.50;99.90
2723;DHT22;1369;53.216;10.396;2023-01-23T15:55:25;4.40;99.90
2723;DHT22;1369;53.216;10.396;2023-01-23T15:57:52;4.40;99.90
2723;DHT22;1369;53.216;10.396;2023-01-23T16:00:26;4.30;99.90
2723;DHT22;1369;53.216;10.396;2023-01-23T16:02:53;4.30;99.90
2723;DHT22;1369;53.216;10.396;2023-01-23T16:05:20;4.30;99.90
2723;DHT22;1369;53.216;10.396;2023-01-23T16:07:46;4.30;99.90
2723;DHT22;1369;53.216;10.396;2023-01-23T16:10:18;4.40;99.90
2723;DHT22;1369;53.216;10.396;2023-01-23T16:12:44;4.40;99.90
2723;DHT22;1369;53.216;10.396;2023-01-23T16:15:19;4.40;99.90
2723;DHT22;1369;53.216;10.396;2023-01-23T16:17:45;4.40;99.90
2723;DHT22;1369;53.216;10.396;2023-01-23T16:20:15;4.30;99.90
2723;DHT22;1369;53.216;10.396;2023-01-23T16:22:42;4.30;99.90
2723;DHT22;1369;53.216;10.396;2023-01-23T16:25:19;4.30;99.90
2723;DHT22;1369;53.216;10.396;2023-01-23T16:27:46;4.30;99.90
2723;DHT22;1369;53.216;10.396;2023-01-23T16:30:16;4.30;99.90
2723;DHT22;1369;53.216;10.396;2023-01-23T16:32:43;4.30;99.90
2723;DHT22;1369;53.216;10.396;2023-01-23T16:35:10;4.30;99.90
2723;DHT22;1369;53.216;10.396;2023-01-23T16:37:36;4.30;99.90
2723;DHT22;1369;53.216;10.396;2023-01-23T16:40:04;4.30;99.90
2723;DHT22;1369;53.216;10.396;2023-01-23T16:42:29;4.30;99.90
2723;DHT22;1369;53.216;10.396;2023-01-23T16:44:55;4.30;99.90
2723;DHT22;1369;53.216;10.396;2023-01-23T16:47:21;4.30;99.90
2723;DHT22;1369;53.216;10.396;2023-01-23T16:49:47;4.30;99.90
2723;DHT22;1369;53.216;10.396;2023-01-23T16:52:13;4.30;99.90
2723;DHT22;1369;53.216;10.396;2023-01-23T16:54:42;4.30;99.90
2723;DHT22;1369;53.216;10.396;2023-01-23T16:57:14;4.20;99.90
2723;DHT22;1369;53.216;10.396;2023-01-23T16:59:42;4.10;99.90
2723;DHT22;1369;53.216;10.396;2023-01-23T17:02:24;4.10;99.90
2723;DHT22;1369;53.216;10.396;2023-01-23T17:04:51;4.10;99.90
2723;DHT22;1369;53.216;10.396;2023-01-23T17:07:18;4.10;99.90
2723;DHT22;1369;53.216;10.396;2023-01-23T17:09:45;4.10;99.90
2723;DHT22;1369;53.216;10.396;2023-01-23T17:12:17;4.10;99.90
2723;DHT22;1369;53.216;10.396;2023-01-23T17:14:44;4.20;99.90
2723;DHT22;1369;53.216;10.396;2023-01-23T17:17:14;4.20;99.90
2723;DHT22;1369;53.216;10.396;2023-01-23T17:19:41;4.30;99.90
2723;DHT22;1369;53.216;10.396;2023-01-23T17:22:24;4.30;99.90
2723;DHT22;1369;53.216;10.396;2023-01-23T17:24:51;4.30;99.90
2723;DHT22;1369;53.216;10.396;2023-01-23T17:27:17;4.30;99.90
2723;DHT22;1369;53.216;10.396;2023-01-23T17:29:42;4.30;99.90
2723;DHT22;1369;53.216;10.396;2023-01-23T17:32:35;4.30;99.90
2723;DHT22;1369;53.216;10.396;2023-01-23T17:35:03;4.30;99.90
2723;DHT22;1369;53.216;10.396;2023-01-23T17:37:30;4.30;99.90
2723;DHT22;1369;53.216;10.396;2023-01-23T17:39:56;4.20;99.90
2723;DHT22;1369;53.216;10.396;2023-01-23T17:42:22;4.10;99.90
2723;DHT22;1369;53.216;10.396;2023-01-23T17:44:47;4.20;99.90
2723;DHT22;1369;53.216;10.396;2023-01-23T17:47:13;4.20;99.90
2723;DHT22;1369;53.216;10.396;2023-01-23T17:49:42;4.20;99.90
2723;DHT22;1369;53.216;10.396;2023-01-23T17:52:10;4.20;99.90
2723;DHT22;1369;53.216;10.396;2023-01-23T17:54:35;4.20;99.90